sensor_id;sensor_type;location;lat;lon;timestamp;temperature;humidity
4960;DHT22;2495;48.200;11.532;2022-08-11T00:03:06;21.90;47.00
4960;DHT22;2495;48.200;11.532;2022-08-11T00:08:06;21.80;47.30
4960;DHT22;2495;48.200;11.532;2022-08-11T00:13:08;21.70;48.00
4960;DHT22;2495;48.200;11.532;2022-08-11T00:18:11;22.00;48.10
4960;DHT22;2495;48.200;11.532;2022-08-11T00:23:12;22.00;47.70
4960;DHT22;2495;48.200;11.532;2022-08-11T00:28:28;21.90;48.30
4960;DHT22;2495;48.200;11.532;2022-08-11T00:33:38;21.90;48.00
4960;DHT22;2495;48.200;11.532;2022-08-11T00:38:39;21.70;48.10
4960;DHT22;2495;48.200;11.532;2022-08-11T00:49:51;21.40;49.00
4960;DHT22;2495;48.200;11.532;2022-08-11T01:00:22;21.50;49.20
4960;DHT22;2495;48.200;11.532;2022-08-11T01:05:55;21.60;49.30
4960;DHT22;2495;48.200;11.532;2022-08-11T01:22:16;21.30;49.50
4960;DHT22;2495;48.200;11.532;2022-08-11T01:49:54;21.20;50.30
4960;DHT22;2495;48.200;11.532;2022-08-11T01:54:55;21.20;49.90
4960;DHT22;2495;48.200;11.532;2022-08-11T02:00:14;21.10;50.30
4960;DHT22;2495;48.200;11.532;2022-08-11T02:05:10;21.20;50.50
4960;DHT22;2495;48.200;11.532;2022-08-11T02:15:47;21.00;50.10
4960;DHT22;2495;48.200;11.532;2022-08-11T02:20:48;20.80;50.40
4960;DHT22;2495;48.200;11.532;2022-08-11T02:31:24;20.50;50.80
4960;DHT22;2495;48.200;11.532;2022-08-11T02:36:43;20.40;51.00
4960;DHT22;2495;48.200;11.532;2022-08-11T02:41:52;20.30;51.40
4960;DHT22;2495;48.200;11.532;2022-08-11T02:53:36;20.10;52.00
4960;DHT22;2495;48.200;11.532;2022-08-11T02:58:35;20.00;52.00
4960;DHT22;2495;48.200;11.532;2022-08-11T03:09:25;20.40;52.70
4960;DHT22;2495;48.200;11.532;2022-08-11T03:14:30;20.40;52.10
4960;DHT22;2495;48.200;11.532;2022-08-11T03:25:20;20.40;52.20
4960;DHT22;2495;48.200;11.532;2022-08-11T03:30:20;20.40;52.80
4960;DHT22;2495;48.200;11.532;2022-08-11T03:35:19;20.50;52.90
4960;DHT22;2495;48.200;11.532;2022-08-11T03:46:13;20.60;53.00
4960;DHT22;2495;48.200;11.532;2022-08-11T03:51:34;20.60;53.10
4960;DHT22;2495;48.200;11.532;2022-08-11T04:02:29;20.20;52.90
4960;DHT22;2495;48.200;11.532;2022-08-11T04:25:06;19.50;53.90
4960;DHT22;2495;48.200;11.532;2022-08-11T05:03:32;19.30;55.40
4960;DHT22;2495;48.200;11.532;2022-08-11T05:14:18;19.50;54.70
4960;DHT22;2495;48.200;11.532;2022-08-11T05:19:26;19.80;55.20
4960;DHT22;2495;48.200;11.532;2022-08-11T05:24:49;19.90;54.40
4960;DHT22;2495;48.200;11.532;2022-08-11T05:30:08;20.10;54.30
4960;DHT22;2495;48.200;11.532;2022-08-11T05:35:37;20.10;54.10
4960;DHT22;2495;48.200;11.532;2022-08-11T05:40:35;20.30;54.00
4960;DHT22;2495;48.200;11.532;2022-08-11T05:45:58;20.40;53.80
4960;DHT22;2495;48.200;11.532;2022-08-11T05:51:18;20.50;53.90
4960;DHT22;2495;48.200;11.532;2022-08-11T05:56:48;20.40;53.80
4960;DHT22;2495;48.200;11.532;2022-08-11T06:01:47;20.50;53.80
4960;DHT22;2495;48.200;11.532;2022-08-11T06:11:53;20.70;53.60
4960;DHT22;2495;48.200;11.532;2022-08-11T06:16:56;20.80;53.50
4960;DHT22;2495;48.200;11.532;2022-08-11T06:21:55;21.00;53.20
4960;DHT22;2495;48.200;11.532;2022-08-11T06:26:56;21.20;53.40
4960;DHT22;2495;48.200;11.532;2022-08-11T06:32:00;21.50;52.70
4960;DHT22;2495;48.200;11.532;2022-08-11T06:37:04;21.70;52.70
4960;DHT22;2495;48.200;11.532;2022-08-11T06:42:08;22.00;52.50
4960;DHT22;2495;48.200;11.532;2022-08-11T06:47:09;22.10;51.60
4960;DHT22;2495;48.200;11.532;2022-08-11T06:52:10;22.40;51.80
4960;DHT22;2495;48.200;11.532;2022-08-11T06:57:13;22.80;51.40
4960;DHT22;2495;48.200;11.532;2022-08-11T07:02:35;22.80;50.60
4960;DHT22;2495;48.200;11.532;2022-08-11T07:13:38;23.10;50.80
4960;DHT22;2495;48.200;11.532;2022-08-11T07:18:59;23.00;50.00
4960;DHT22;2495;48.200;11.532;2022-08-11T07:24:25;23.30;50.20
4960;DHT22;2495;48.200;11.532;2022-08-11T07:29:45;23.70;49.70
4960;DHT22;2495;48.200;11.532;2022-08-11T07:34:46;24.10;48.50
4960;DHT22;2495;48.200;11.532;2022-08-11T07:39:47;25.10;46.60
4960;DHT22;2495;48.200;11.532;2022-08-11T07:44:47;25.90;45.20
4960;DHT22;2495;48.200;11.532;2022-08-11T07:50:08;26.60;44.30
4960;DHT22;2495;48.200;11.532;2022-08-11T07:55:27;27.40;43.20
4960;DHT22;2495;48.200;11.532;2022-08-11T08:00:29;28.00;41.90
4960;DHT22;2495;48.200;11.532;2022-08-11T08:05:49;28.20;41.30
4960;DHT22;2495;48.200;11.532;2022-08-11T08:11:09;28.40;40.30
4960;DHT22;2495;48.200;11.532;2022-08-11T08:16:28;29.10;39.70
4960;DHT22;2495;48.200;11.532;2022-08-11T08:21:48;29.50;39.80
4960;DHT22;2495;48.200;11.532;2022-08-11T08:26:49;29.50;38.70
4960;DHT22;2495;48.200;11.532;2022-08-11T08:31:59;29.70;38.20
4960;DHT22;2495;48.200;11.532;2022-08-11T08:37:01;29.70;38.50
4960;DHT22;2495;48.200;11.532;2022-08-11T08:47:14;30.10;37.00
4960;DHT22;2495;48.200;11.532;2022-08-11T08:52:19;30.30;36.70
4960;DHT22;2495;48.200;11.532;2022-08-11T08:57:20;31.00;36.30
4960;DHT22;2495;48.200;11.532;2022-08-11T09:02:22;31.50;35.40
4960;DHT22;2495;48.200;11.532;2022-08-11T09:07:22;31.60;35.00
4960;DHT22;2495;48.200;11.532;2022-08-11T09:12:26;31.90;34.90
4960;DHT22;2495;48.200;11.532;2022-08-11T09:17:27;32.60;34.30
4960;DHT22;2495;48.200;11.532;2022-08-11T09:22:29;33.20;33.60
4960;DHT22;2495;48.200;11.532;2022-08-11T09:27:48;33.60;33.10
4960;DHT22;2495;48.200;11.532;2022-08-11T09:32:49;33.60;32.50
4960;DHT22;2495;48.200;11.532;2022-08-11T09:37:51;34.00;32.00
4960;DHT22;2495;48.200;11.532;2022-08-11T09:43:10;34.50;31.50
4960;DHT22;2495;48.200;11.532;2022-08-11T09:48:30;34.90;31.10
4960;DHT22;2495;48.200;11.532;2022-08-11T09:53:34;35.40;30.10
4960;DHT22;2495;48.200;11.532;2022-08-11T09:58:32;35.50;29.30
4960;DHT22;2495;48.200;11.532;2022-08-11T10:03:34;35.00;29.10
4960;DHT22;2495;48.200;11.532;2022-08-11T10:08:36;35.30;29.00
4960;DHT22;2495;48.200;11.532;2022-08-11T10:13:37;35.90;29.10
4960;DHT22;2495;48.200;11.532;2022-08-11T10:18:40;36.30;28.50
4960;DHT22;2495;48.200;11.532;2022-08-11T10:30:17;36.60;27.60
4960;DHT22;2495;48.200;11.532;2022-08-11T10:35:37;36.50;27.50
4960;DHT22;2495;48.200;11.532;2022-08-11T10:40:38;36.30;27.40
4960;DHT22;2495;48.200;11.532;2022-08-11T10:45:43;36.10;28.00
4960;DHT22;2495;48.200;11.532;2022-08-11T10:51:02;36.10;27.60
4960;DHT22;2495;48.200;11.532;2022-08-11T10:56:16;36.80;27.20
4960;DHT22;2495;48.200;11.532;2022-08-11T11:01:39;38.10;26.50
4960;DHT22;2495;48.200;11.532;2022-08-11T11:11:53;39.20;25.30
4960;DHT22;2495;48.200;11.532;2022-08-11T11:17:12;40.80;24.60
4960;DHT22;2495;48.200;11.532;2022-08-11T11:22:15;40.20;24.80
4960;DHT22;2495;48.200;11.532;2022-08-11T11:27:57;39.50;25.40
4960;DHT22;2495;48.200;11.532;2022-08-11T11:33:12;38.00;26.10
4960;DHT22;2495;48.200;11.532;2022-08-11T11:38:11;36.80;26.60
4960;DHT22;2495;48.200;11.532;2022-08-11T11:43:12;35.50;27.30
4960;DHT22;2495;48.200;11.532;2022-08-11T11:48:14;34.40;28.20
4960;DHT22;2495;48.200;11.532;2022-08-11T11:53:15;33.70;28.80
4960;DHT22;2495;48.200;11.532;2022-08-11T11:58:16;33.10;29.70
4960;DHT22;2495;48.200;11.532;2022-08-11T12:03:36;32.80;30.00
4960;DHT22;2495;48.200;11.532;2022-08-11T12:08:37;32.60;29.60
4960;DHT22;2495;48.200;11.532;2022-08-11T12:13:39;32.40;30.00
4960;DHT22;2495;48.200;11.532;2022-08-11T12:18:42;32.10;30.40
4960;DHT22;2495;48.200;11.532;2022-08-11T12:23:44;32.00;30.40
4960;DHT22;2495;48.200;11.532;2022-08-11T12:29:04;31.80;30.80
4960;DHT22;2495;48.200;11.532;2022-08-11T12:34:11;31.50;30.90
4960;DHT22;2495;48.200;11.532;2022-08-11T12:39:12;31.10;31.50
4960;DHT22;2495;48.200;11.532;2022-08-11T12:44:13;31.10;31.80
4960;DHT22;2495;48.200;11.532;2022-08-11T12:49:34;31.10;31.70
4960;DHT22;2495;48.200;11.532;2022-08-11T12:55:15;31.10;31.80
4960;DHT22;2495;48.200;11.532;2022-08-11T13:00:15;31.30;32.00
4960;DHT22;2495;48.200;11.532;2022-08-11T13:05:35;31.20;31.60
4960;DHT22;2495;48.200;11.532;2022-08-11T13:10:36;31.20;31.90
4960;DHT22;2495;48.200;11.532;2022-08-11T13:15:55;31.30;31.60
4960;DHT22;2495;48.200;11.532;2022-08-11T13:20:57;31.30;31.50
4960;DHT22;2495;48.200;11.532;2022-08-11T13:25:58;31.40;31.60
4960;DHT22;2495;48.200;11.532;2022-08-11T13:30:59;31.30;31.10
4960;DHT22;2495;48.200;11.532;2022-08-11T13:36:12;31.40;31.00
4960;DHT22;2495;48.200;11.532;2022-08-11T13:41:14;31.30;31.30
4960;DHT22;2495;48.200;11.532;2022-08-11T13:46:34;31.70;31.70
4960;DHT22;2495;48.200;11.532;2022-08-11T13:51:35;31.80;31.00
4960;DHT22;2495;48.200;11.532;2022-08-11T13:56:37;31.40;31.30
4960;DHT22;2495;48.200;11.532;2022-08-11T14:01:38;31.30;31.00
4960;DHT22;2495;48.200;11.532;2022-08-11T14:06:44;31.90;31.20
4960;DHT22;2495;48.200;11.532;2022-08-11T14:11:42;32.10;31.30
4960;DHT22;2495;48.200;11.532;2022-08-11T14:17:04;32.10;30.50
4960;DHT22;2495;48.200;11.532;2022-08-11T14:22:04;31.90;30.80
4960;DHT22;2495;48.200;11.532;2022-08-11T14:27:11;31.60;30.40
4960;DHT22;2495;48.200;11.532;2022-08-11T14:32:09;31.30;30.80
4960;DHT22;2495;48.200;11.532;2022-08-11T14:37:23;30.90;30.60
4960;DHT22;2495;48.200;11.532;2022-08-11T14:42:24;30.60;31.50
4960;DHT22;2495;48.200;11.532;2022-08-11T14:47:46;30.60;31.30
4960;DHT22;2495;48.200;11.532;2022-08-11T14:52:52;30.40;30.70
4960;DHT22;2495;48.200;11.532;2022-08-11T14:57:52;30.20;31.40
4960;DHT22;2495;48.200;11.532;2022-08-11T15:02:53;30.00;31.70
4960;DHT22;2495;48.200;11.532;2022-08-11T15:08:07;29.90;31.80
4960;DHT22;2495;48.200;11.532;2022-08-11T15:13:08;29.70;31.30
4960;DHT22;2495;48.200;11.532;2022-08-11T15:18:10;29.70;31.60
4960;DHT22;2495;48.200;11.532;2022-08-11T15:23:10;29.70;31.30
4960;DHT22;2495;48.200;11.532;2022-08-11T15:28:12;29.80;31.50
4960;DHT22;2495;48.200;11.532;2022-08-11T15:33:32;29.90;31.30
4960;DHT22;2495;48.200;11.532;2022-08-11T15:39:02;29.90;30.70
4960;DHT22;2495;48.200;11.532;2022-08-11T15:44:05;30.00;30.50
4960;DHT22;2495;48.200;11.532;2022-08-11T15:49:28;30.00;29.70
4960;DHT22;2495;48.200;11.532;2022-08-11T15:54:29;29.90;30.10
4960;DHT22;2495;48.200;11.532;2022-08-11T15:59:31;29.70;30.20
4960;DHT22;2495;48.200;11.532;2022-08-11T16:04:50;29.40;31.20
4960;DHT22;2495;48.200;11.532;2022-08-11T16:10:07;29.20;30.40
4960;DHT22;2495;48.200;11.532;2022-08-11T16:15:10;29.00;31.20
4960;DHT22;2495;48.200;11.532;2022-08-11T16:20:31;29.10;31.00
4960;DHT22;2495;48.200;11.532;2022-08-11T16:25:33;28.90;31.20
4960;DHT22;2495;48.200;11.532;2022-08-11T16:30:34;28.70;32.00
4960;DHT22;2495;48.200;11.532;2022-08-11T16:35:35;28.50;31.80
4960;DHT22;2495;48.200;11.532;2022-08-11T16:40:55;28.40;32.30
4960;DHT22;2495;48.200;11.532;2022-08-11T16:45:56;28.30;32.80
4960;DHT22;2495;48.200;11.532;2022-08-11T16:51:16;28.20;32.90
4960;DHT22;2495;48.200;11.532;2022-08-11T16:56:24;28.00;33.00
4960;DHT22;2495;48.200;11.532;2022-08-11T17:01:28;28.00;33.20
4960;DHT22;2495;48.200;11.532;2022-08-11T17:06:29;27.90;32.80
4960;DHT22;2495;48.200;11.532;2022-08-11T17:11:53;27.90;33.10
4960;DHT22;2495;48.200;11.532;2022-08-11T17:17:15;27.80;33.00
4960;DHT22;2495;48.200;11.532;2022-08-11T17:22:17;27.70;32.90
4960;DHT22;2495;48.200;11.532;2022-08-11T17:27:36;27.70;32.90
4960;DHT22;2495;48.200;11.532;2022-08-11T17:32:38;27.60;33.40
4960;DHT22;2495;48.200;11.532;2022-08-11T17:38:00;27.50;32.80
4960;DHT22;2495;48.200;11.532;2022-08-11T17:43:16;27.40;32.90
4960;DHT22;2495;48.200;11.532;2022-08-11T17:48:37;27.40;33.20
4960;DHT22;2495;48.200;11.532;2022-08-11T17:53:41;27.30;33.30
4960;DHT22;2495;48.200;11.532;2022-08-11T17:59:01;27.30;33.50
4960;DHT22;2495;48.200;11.532;2022-08-11T18:04:21;27.30;33.40
4960;DHT22;2495;48.200;11.532;2022-08-11T18:09:22;27.20;33.30
4960;DHT22;2495;48.200;11.532;2022-08-11T18:14:48;27.20;33.50
4960;DHT22;2495;48.200;11.532;2022-08-11T18:20:08;27.20;33.70
4960;DHT22;2495;48.200;11.532;2022-08-11T18:25:32;27.40;34.40
4960;DHT22;2495;48.200;11.532;2022-08-11T18:30:51;27.30;34.00
4960;DHT22;2495;48.200;11.532;2022-08-11T18:36:12;27.10;34.00
4960;DHT22;2495;48.200;11.532;2022-08-11T18:41:34;26.90;34.20
4960;DHT22;2495;48.200;11.532;2022-08-11T18:46:53;26.80;34.50
4960;DHT22;2495;48.200;11.532;2022-08-11T18:52:13;26.60;34.70
4960;DHT22;2495;48.200;11.532;2022-08-11T18:57:33;26.40;34.90
4960;DHT22;2495;48.200;11.532;2022-08-11T19:02:52;26.30;35.20
4960;DHT22;2495;48.200;11.532;2022-08-11T19:08:11;26.20;35.50
4960;DHT22;2495;48.200;11.532;2022-08-11T19:13:32;26.10;35.80
4960;DHT22;2495;48.200;11.532;2022-08-11T19:18:51;26.00;36.10
4960;DHT22;2495;48.200;11.532;2022-08-11T19:24:13;25.80;36.20
4960;DHT22;2495;48.200;11.532;2022-08-11T19:29:33;25.80;37.20
4960;DHT22;2495;48.200;11.532;2022-08-11T19:34:53;25.70;36.80
4960;DHT22;2495;48.200;11.532;2022-08-11T19:40:13;25.60;37.10
4960;DHT22;2495;48.200;11.532;2022-08-11T19:45:32;25.50;37.40
4960;DHT22;2495;48.200;11.532;2022-08-11T19:50:53;25.50;37.60
4960;DHT22;2495;48.200;11.532;2022-08-11T19:56:12;25.40;37.90
4960;DHT22;2495;48.200;11.532;2022-08-11T20:01:32;25.30;38.00
4960;DHT22;2495;48.200;11.532;2022-08-11T20:06:52;25.20;38.20
4960;DHT22;2495;48.200;11.532;2022-08-11T20:12:11;25.10;38.50
4960;DHT22;2495;48.200;11.532;2022-08-11T20:17:32;25.10;38.80
4960;DHT22;2495;48.200;11.532;2022-08-11T20:22:51;25.00;39.70
4960;DHT22;2495;48.200;11.532;2022-08-11T20:28:11;24.90;39.20
4960;DHT22;2495;48.200;11.532;2022-08-11T20:33:30;24.80;39.60
4960;DHT22;2495;48.200;11.532;2022-08-11T20:38:50;24.70;40.00
4960;DHT22;2495;48.200;11.532;2022-08-11T20:44:10;24.60;40.10
4960;DHT22;2495;48.200;11.532;2022-08-11T20:49:30;24.50;40.20
4960;DHT22;2495;48.200;11.532;2022-08-11T20:54:49;24.60;41.00
4960;DHT22;2495;48.200;11.532;2022-08-11T21:00:09;24.60;40.20
4960;DHT22;2495;48.200;11.532;2022-08-11T21:05:33;24.50;40.80
4960;DHT22;2495;48.200;11.532;2022-08-11T21:10:52;24.60;40.30
4960;DHT22;2495;48.200;11.532;2022-08-11T21:16:16;24.50;40.30
4960;DHT22;2495;48.200;11.532;2022-08-11T21:21:31;24.30;40.40
4960;DHT22;2495;48.200;11.532;2022-08-11T21:26:51;24.20;40.70
4960;DHT22;2495;48.200;11.532;2022-08-11T21:32:11;24.10;40.90
4960;DHT22;2495;48.200;11.532;2022-08-11T21:37:30;24.00;41.70
4960;DHT22;2495;48.200;11.532;2022-08-11T21:42:50;24.20;41.90
4960;DHT22;2495;48.200;11.532;2022-08-11T21:48:10;24.20;41.40
4960;DHT22;2495;48.200;11.532;2022-08-11T21:53:30;24.00;41.50
4960;DHT22;2495;48.200;11.532;2022-08-11T21:58:49;23.80;41.80
4960;DHT22;2495;48.200;11.532;2022-08-11T22:04:09;23.70;42.80
4960;DHT22;2495;48.200;11.532;2022-08-11T22:09:29;23.70;42.50
4960;DHT22;2495;48.200;11.532;2022-08-11T22:14:49;23.60;42.70
4960;DHT22;2495;48.200;11.532;2022-08-11T22:20:09;23.40;42.90
4960;DHT22;2495;48.200;11.532;2022-08-11T22:25:28;23.30;43.20
4960;DHT22;2495;48.200;11.532;2022-08-11T22:30:47;23.20;43.50
4960;DHT22;2495;48.200;11.532;2022-08-11T22:36:08;23.00;43.80
4960;DHT22;2495;48.200;11.532;2022-08-11T22:41:26;22.90;44.30
4960;DHT22;2495;48.200;11.532;2022-08-11T22:46:46;22.70;44.70
4960;DHT22;2495;48.200;11.532;2022-08-11T22:52:06;22.60;44.90
4960;DHT22;2495;48.200;11.532;2022-08-11T22:57:26;22.60;45.70
4960;DHT22;2495;48.200;11.532;2022-08-11T23:02:45;22.70;45.40
4960;DHT22;2495;48.200;11.532;2022-08-11T23:08:05;22.60;45.50
4960;DHT22;2495;48.200;11.532;2022-08-11T23:13:25;22.40;45.80
4960;DHT22;2495;48.200;11.532;2022-08-11T23:18:45;22.40;46.60
4960;DHT22;2495;48.200;11.532;2022-08-11T23:24:04;22.40;46.20
4960;DHT22;2495;48.200;11.532;2022-08-11T23:29:25;22.30;46.40
4960;DHT22;2495;48.200;11.532;2022-08-11T23:34:44;22.10;46.50
4960;DHT22;2495;48.200;11.532;2022-08-11T23:40:04;22.00;46.70
4960;DHT22;2495;48.200;11.532;2022-08-11T23:45:24;21.90;46.80
4960;DHT22;2495;48.200;11.532;2022-08-11T23:50:44;21.80;46.80
4960;DHT22;2495;48.200;11.532;2022-08-11T23:56:03;21.80;46.90
